^^
Station Historical Data
Daily Summary for April 25, 2019 Units:  English    Metric   Both
« Previous Day
Next Day »
Daily Weekly Monthly Yearly Custom
  High: Low: Average:
Temperature: 56.4 °F 34.9 °F 47.4 °F
Dew Point: 37.3 °F 8.2 °F 22.7 °F
Humidity: 78% 16% 42%
Wind Speed: 35.0mph 1.0mph 13.1mph
Wind Gust: 45.0mph - -
Wind- - WNW
Pressure: 30.08 in 29.76 in -
Precipitation: 0.01 in    
Historical Graphs
 
 
Tabular Data for April 25, 2019
Time Temperature Dew Point Pressure Wind Wind Speed Wind Gust Humidity Rainfall Rate (Hourly) solar Conditions
00:04 47.8 °F 29.0 °F 29.76 in WNW 4.0 mph 5.0 mph 48% 0.00 in 0.00 W/m2
00:09 47.8 °F 29.0 °F 29.76 in WNW 3.0 mph 5.0 mph 48% 0.00 in 0.00 W/m2
00:14 47.6 °F 28.9 °F 29.76 in WNW 5.0 mph 5.0 mph 48% 0.00 in 0.00 W/m2
00:19 47.5 °F 28.8 °F 29.76 in WNW 4.0 mph 5.0 mph 48% 0.00 in 0.00 W/m2
00:24 47.4 °F 28.2 °F 29.77 in WNW 3.0 mph 5.0 mph 47% 0.00 in 0.00 W/m2
00:29 47.3 °F 28.1 °F 29.77 in WNW 3.0 mph 5.0 mph 47% 0.00 in 0.00 W/m2
00:34 47.2 °F 28.0 °F 29.77 in WNW 3.0 mph 4.0 mph 47% 0.00 in 0.00 W/m2
00:39 47.3 °F 28.1 °F 29.77 in WNW 4.0 mph 5.0 mph 47% 0.00 in 0.00 W/m2
00:44 47.3 °F 28.1 °F 29.77 in WNW 4.0 mph 5.0 mph 47% 0.00 in 0.00 W/m2
00:49 47.4 °F 28.2 °F 29.77 in WNW 5.0 mph 5.0 mph 47% 0.00 in 0.00 W/m2
00:54 47.3 °F 28.1 °F 29.77 in WNW 5.0 mph 5.0 mph 47% 0.00 in 0.00 W/m2
00:59 47.0 °F 27.8 °F 29.77 in NW 6.0 mph 6.0 mph 47% 0.00 in 0.00 W/m2
01:04 46.9 °F 28.2 °F 29.77 in NW 5.0 mph 6.0 mph 48% 0.00 in 0.00 W/m2
01:09 46.9 °F 28.2 °F 29.77 in NW 4.0 mph 6.0 mph 48% 0.00 in 0.00 W/m2
01:14 47.0 °F 27.8 °F 29.77 in NW 5.0 mph 6.0 mph 47% 0.00 in 0.00 W/m2
01:19 46.9 °F 28.2 °F 29.77 in NW 4.0 mph 6.0 mph 48% 0.00 in 0.00 W/m2
01:24 46.7 °F 28.0 °F 29.77 in NW 4.0 mph 6.0 mph 48% 0.00 in 0.00 W/m2
01:29 46.5 °F 27.8 °F 29.77 in NW 5.0 mph 5.0 mph 48% 0.00 in 0.00 W/m2
01:34 46.3 °F 28.2 °F 29.77 in NW 4.0 mph 5.0 mph 49% 0.00 in 0.00 W/m2
01:39 46.0 °F 27.9 °F 29.77 in NW 4.0 mph 5.0 mph 49% 0.00 in 0.00 W/m2
01:44 45.7 °F 27.6 °F 29.77 in NW 3.0 mph 5.0 mph 49% 0.00 in 0.00 W/m2
01:49 45.5 °F 27.9 °F 29.78 in NW 3.0 mph 4.0 mph 50% 0.00 in 0.00 W/m2
01:54 45.3 °F 27.7 °F 29.78 in NW 4.0 mph 4.0 mph 50% 0.00 in 0.00 W/m2
01:59 45.2 °F 27.6 °F 29.78 in NW 3.0 mph 5.0 mph 50% 0.00 in 0.00 W/m2
02:04 44.9 °F 27.8 °F 29.78 in WNW 4.0 mph 5.0 mph 51% 0.00 in 0.00 W/m2
02:09 44.9 °F 27.8 °F 29.79 in WNW 4.0 mph 5.0 mph 51% 0.00 in 0.00 W/m2
02:14 44.9 °F 27.8 °F 29.79 in WNW 4.0 mph 6.0 mph 51% 0.00 in 0.00 W/m2
02:19 44.7 °F 28.1 °F 29.79 in WNW 4.0 mph 6.0 mph 52% 0.00 in 0.00 W/m2
02:24 44.4 °F 28.3 °F 29.79 in NW 4.0 mph 6.0 mph 53% 0.00 in 0.00 W/m2
02:29 44.0 °F 28.0 °F 29.79 in NW 4.0 mph 6.0 mph 53% 0.00 in 0.00 W/m2
02:34 43.8 °F 27.8 °F 29.79 in NW 4.0 mph 5.0 mph 53% 0.00 in 0.00 W/m2
02:39 43.6 °F 27.6 °F 29.79 in NW 3.0 mph 5.0 mph 53% 0.00 in 0.00 W/m2
02:44 42.8 °F 27.7 °F 29.79 in NW 3.0 mph 5.0 mph 55% 0.00 in 0.00 W/m2
02:49 42.5 °F 27.9 °F 29.79 in NW 4.0 mph 4.0 mph 56% 0.00 in 0.00 W/m2
02:54 42.0 °F 27.9 °F 29.79 in WNW 4.0 mph 4.0 mph 57% 0.00 in 0.00 W/m2
02:59 41.3 °F 27.6 °F 29.79 in WNW 4.0 mph 4.0 mph 58% 0.00 in 0.00 W/m2
03:04 40.7 °F 27.5 °F 29.80 in West 4.0 mph 5.0 mph 59% 0.00 in 0.00 W/m2
03:09 40.2 °F 27.4 °F 29.80 in West 4.0 mph 5.0 mph 60% 0.00 in 0.00 W/m2
03:14 39.8 °F 27.4 °F 29.80 in West 4.0 mph 5.0 mph 61% 0.00 in 0.00 W/m2
03:19 39.7 °F 27.7 °F 29.80 in West 4.0 mph 5.0 mph 62% 0.00 in 0.00 W/m2
03:24 39.6 °F 27.6 °F 29.80 in West 5.0 mph 5.0 mph 62% 0.00 in 0.00 W/m2
03:29 39.6 °F 28.0 °F 29.80 in West 4.0 mph 5.0 mph 63% 0.00 in 0.00 W/m2
03:34 39.8 °F 28.2 °F 29.80 in West 4.0 mph 5.0 mph 63% 0.00 in 0.00 W/m2
03:39 40.0 °F 28.0 °F 29.81 in West 5.0 mph 5.0 mph 62% 0.00 in 0.00 W/m2
03:44 40.1 °F 28.1 °F 29.80 in West 5.0 mph 5.0 mph 62% 0.00 in 0.00 W/m2
03:49 40.7 °F 28.3 °F 29.81 in West 5.0 mph 6.0 mph 61% 0.00 in 0.00 W/m2
03:54 41.0 °F 27.8 °F 29.81 in WNW 5.0 mph 7.0 mph 59% 0.00 in 0.00 W/m2
03:59 41.1 °F 27.9 °F 29.81 in West 4.0 mph 7.0 mph 59% 0.00 in 0.00 W/m2
04:04 40.8 °F 28.0 °F 29.81 in West 4.0 mph 6.0 mph 60% 0.00 in 0.00 W/m2
04:09 40.8 °F 28.0 °F 29.81 in West 4.0 mph 5.0 mph 60% 0.00 in 0.00 W/m2
04:14 41.2 °F 27.9 °F 29.81 in WNW 5.0 mph 5.0 mph 59% 0.00 in 0.00 W/m2
04:19 41.3 °F 27.6 °F 29.82 in WNW 4.0 mph 5.0 mph 58% 0.00 in 0.00 W/m2
04:24 40.9 °F 27.7 °F 29.82 in West 4.0 mph 5.0 mph 59% 0.00 in 0.00 W/m2
04:29 39.8 °F 27.8 °F 29.82 in West 5.0 mph 6.0 mph 62% 0.00 in 0.00 W/m2
04:34 38.9 °F 27.8 °F 29.82 in West 4.0 mph 6.0 mph 64% 0.00 in 0.00 W/m2
04:39 38.2 °F 27.8 °F 29.82 in West 3.0 mph 6.0 mph 66% 0.00 in 0.00 W/m2
04:44 37.7 °F 27.7 °F 29.82 in West 3.0 mph 5.0 mph 67% 0.00 in 0.00 W/m2
04:49 37.3 °F 27.7 °F 29.82 in West 2.0 mph 4.0 mph 68% 0.00 in 0.00 W/m2
04:54 37.0 °F 28.1 °F 29.82 in West 2.0 mph 4.0 mph 70% 0.00 in 0.00 W/m2
04:59 36.8 °F 28.3 °F 29.83 in West 2.0 mph 4.0 mph 71% 0.00 in 0.00 W/m2
05:04 36.8 °F 28.6 °F 29.83 in West 4.0 mph 4.0 mph 72% 0.00 in 0.00 W/m2
05:09 36.9 °F 29.1 °F 29.83 in West 3.0 mph 4.0 mph 73% 0.00 in 0.00 W/m2
05:14 37.1 °F 29.2 °F 29.83 in West 3.0 mph 4.0 mph 73% 0.00 in 0.00 W/m2
05:19 37.4 °F 29.2 °F 29.83 in West 3.0 mph 3.0 mph 72% 0.00 in 0.00 W/m2
05:24 37.2 °F 29.0 °F 29.83 in West 4.0 mph 5.0 mph 72% 0.00 in 0.00 W/m2
05:29 36.8 °F 28.6 °F 29.83 in West 3.0 mph 5.0 mph 72% 0.00 in 0.00 W/m2
05:34 36.3 °F 28.5 °F 29.84 in West 3.0 mph 4.0 mph 73% 0.00 in 0.00 W/m2
05:39 36.1 °F 28.6 °F 29.84 in West 3.0 mph 4.0 mph 74% 0.00 in 0.00 W/m2
05:44 35.8 °F 28.6 °F 29.84 in WSW 4.0 mph 5.0 mph 75% 0.00 in 0.00 W/m2
05:49 35.5 °F 28.4 °F 29.84 in WSW 4.0 mph 5.0 mph 75% 0.00 in 0.00 W/m2
05:54 35.2 °F 28.1 °F 29.84 in West 4.0 mph 5.0 mph 75% 0.00 in 0.00 W/m2
05:59 35.2 °F 28.4 °F 29.84 in West 3.0 mph 5.0 mph 76% 0.00 in 0.00 W/m2
06:04 35.0 °F 28.2 °F 29.84 in WSW 4.0 mph 5.0 mph 76% 0.00 in 0.00 W/m2
06:09 34.9 °F 28.1 °F 29.85 in West 4.0 mph 5.0 mph 76% 0.00 in 0.00 W/m2
06:14 35.0 °F 28.5 °F 29.85 in West 4.0 mph 5.0 mph 77% 0.00 in 0.00 W/m2
06:19 35.1 °F 28.6 °F 29.85 in WSW 4.0 mph 5.0 mph 77% 0.00 in 0.00 W/m2
06:24 35.0 °F 28.5 °F 29.85 in WSW 4.0 mph 5.0 mph 77% 0.00 in 0.00 W/m2
06:29 34.9 °F 28.4 °F 29.85 in WSW 3.0 mph 5.0 mph 77% 0.00 in 0.00 W/m2
06:34 35.0 °F 28.5 °F 29.85 in WSW 4.0 mph 4.0 mph 77% 0.00 in 0.00 W/m2
06:39 35.1 °F 28.9 °F 29.85 in West 4.0 mph 5.0 mph 78% 0.00 in 5.00 W/m2
06:44 35.4 °F 28.9 °F 29.85 in WNW 4.0 mph 6.0 mph 77% 0.00 in 9.00 W/m2
06:49 35.8 °F 29.0 °F 29.86 in West 5.0 mph 6.0 mph 76% 0.00 in 11.00 W/m2
06:54 35.7 °F 28.9 °F 29.86 in West 5.0 mph 6.0 mph 76% 0.00 in 18.00 W/m2
06:59 35.9 °F 29.1 °F 29.86 in WNW 7.0 mph 7.0 mph 76% 0.00 in 25.00 W/m2
07:04 36.9 °F 29.4 °F 29.87 in NW 7.0 mph 8.0 mph 74% 0.00 in 33.00 W/m2
07:09 37.2 °F 29.0 °F 29.89 in NW 7.0 mph 12.0 mph 72% 0.00 in 25.00 W/m2
07:14 37.0 °F 29.1 °F 29.89 in NW 9.0 mph 12.0 mph 73% 0.00 in 26.00 W/m2
07:19 37.0 °F 28.8 °F 29.89 in NW 6.0 mph 10.0 mph 72% 0.00 in 28.00 W/m2
07:24 37.1 °F 28.6 °F 29.90 in NW 6.0 mph 10.0 mph 71% 0.00 in 39.00 W/m2
07:29 38.9 °F 28.9 °F 29.90 in WNW 6.0 mph 11.0 mph 67% 0.00 in 58.00 W/m2
07:34 39.2 °F 29.5 °F 29.91 in West 7.0 mph 11.0 mph 68% 0.00 in 62.00 W/m2
07:39 40.1 °F 29.3 °F 29.91 in NW 10.0 mph 16.0 mph 65% 0.00 in 67.00 W/m2
07:44 41.5 °F 29.0 °F 29.91 in NW 12.0 mph 17.0 mph 61% 0.00 in 81.00 W/m2
07:49 42.1 °F 30.0 °F 29.91 in NNW 7.0 mph 17.0 mph 62% 0.00 in 88.00 W/m2
07:54 42.4 °F 30.7 °F 29.92 in North 8.0 mph 16.0 mph 63% 0.00 in 104.00 W/m2
07:59 42.7 °F 30.2 °F 29.92 in NNW 9.0 mph 16.0 mph 61% 0.00 in 107.00 W/m2
08:04 42.9 °F 30.0 °F 29.92 in NW 13.0 mph 17.0 mph 60% 0.00 in 125.00 W/m2
08:09 43.2 °F 30.2 °F 29.92 in NNW 12.0 mph 18.0 mph 60% 0.00 in 121.00 W/m2
08:14 43.7 °F 30.3 °F 29.93 in North 14.0 mph 20.0 mph 59% 0.00 in 137.00 W/m2
08:19 44.3 °F 30.0 °F 29.93 in NNW 11.0 mph 22.0 mph 57% 0.00 in 179.00 W/m2
08:24 45.2 °F 30.9 °F 29.93 in North 10.0 mph 22.0 mph 57% 0.00 in 257.00 W/m2
08:29 45.7 °F 30.9 °F 29.93 in North 19.0 mph 21.0 mph 56% 0.00 in 111.00 W/m2
08:34 46.1 °F 31.3 °F 29.93 in NNW 13.0 mph 22.0 mph 56% 0.00 in 144.00 W/m2
08:39 46.6 °F 31.3 °F 29.93 in North 18.0 mph 22.0 mph 55% 0.00 in 185.00 W/m2
08:44 47.2 °F 31.4 °F 29.93 in North 22.0 mph 27.0 mph 54% 0.00 in 290.00 W/m2
08:49 47.5 °F 31.2 °F 29.93 in North 15.0 mph 27.0 mph 53% 0.00 in 160.00 W/m2
08:54 48.1 °F 32.2 °F 29.93 in NNW 9.0 mph 24.0 mph 54% 0.00 in 241.00 W/m2
08:59 49.0 °F 32.6 °F 29.93 in North 19.0 mph 30.0 mph 53% 0.00 in 271.00 W/m2
09:04 48.7 °F 32.3 °F 29.94 in NNW 24.0 mph 31.0 mph 53% 0.00 in 193.00 W/m2
09:09 48.6 °F 32.7 °F 29.94 in NNW 23.0 mph 31.0 mph 54% 0.00 in 156.00 W/m2
09:14 48.5 °F 32.6 °F 29.95 in NNW 14.0 mph 25.0 mph 54% 0.00 in 202.00 W/m2
09:19 48.8 °F 33.3 °F 29.95 in North 14.0 mph 23.0 mph 55% 0.00 in 230.00 W/m2
09:24 49.0 °F 33.5 °F 29.95 in NW 13.0 mph 22.0 mph 55% 0.00 in 218.00 W/m2
09:29 48.6 °F 33.1 °F 29.95 in NW 12.0 mph 26.0 mph 55% 0.00 in 246.00 W/m2
09:34 48.6 °F 33.1 °F 29.95 in NW 13.0 mph 26.0 mph 55% 0.00 in 281.00 W/m2
09:39 49.1 °F 34.1 °F 29.95 in NNW 11.0 mph 21.0 mph 56% 0.00 in 404.00 W/m2
09:44 49.6 °F 35.0 °F 29.94 in NNW 18.0 mph 22.0 mph 57% 0.00 in 701.00 W/m2
09:49 50.0 °F 34.0 °F 29.94 in NW 14.0 mph 22.0 mph 54% 0.00 in 348.00 W/m2
09:54 49.7 °F 33.7 °F 29.94 in NW 18.0 mph 22.0 mph 54% 0.00 in 192.00 W/m2
09:59 49.3 °F 33.8 °F 29.94 in NW 10.0 mph 19.0 mph 55% 0.00 in 197.00 W/m2
10:04 49.1 °F 33.6 °F 29.94 in NNW 15.0 mph 19.0 mph 55% 0.00 in 274.00 W/m2
10:09 50.0 °F 34.0 °F 29.94 in WNW 13.0 mph 21.0 mph 54% 0.00 in 448.00 W/m2
10:14 50.6 °F 34.6 °F 29.94 in NW 16.0 mph 21.0 mph 54% 0.00 in 615.00 W/m2
10:19 51.7 °F 35.1 °F 29.94 in NNW 12.0 mph 22.0 mph 53% 0.00 in 526.00 W/m2
10:24 51.6 °F 34.0 °F 29.94 in NW 8.0 mph 24.0 mph 51% 0.00 in 510.00 W/m2
10:29 51.6 °F 35.0 °F 29.94 in NW 13.0 mph 24.0 mph 53% 0.00 in 601.00 W/m2
10:34 51.6 °F 35.0 °F 29.94 in NW 15.0 mph 20.0 mph 53% 0.00 in 610.00 W/m2
10:39 51.8 °F 35.2 °F 29.94 in NW 14.0 mph 27.0 mph 53% 0.00 in 626.00 W/m2
10:44 52.3 °F 36.1 °F 29.94 in WNW 21.0 mph 27.0 mph 54% 0.00 in 629.00 W/m2
10:49 52.9 °F 36.7 °F 29.94 in WNW 22.0 mph 30.0 mph 54% 0.00 in 621.00 W/m2
10:54 53.6 °F 37.3 °F 29.94 in WNW 20.0 mph 30.0 mph 54% 0.00 in 608.00 W/m2
10:59 53.8 °F 37.1 °F 29.94 in WNW 25.0 mph 30.0 mph 53% 0.00 in 589.00 W/m2
11:04 54.1 °F 35.9 °F 29.94 in NNW 26.0 mph 28.0 mph 50% 0.00 in 584.00 W/m2
11:09 54.1 °F 36.4 °F 29.95 in WNW 17.0 mph 31.0 mph 51% 0.00 in 580.00 W/m2
11:14 54.7 °F 35.9 °F 29.95 in NW 15.0 mph 31.0 mph 49% 0.00 in 580.00 W/m2
11:19 55.5 °F 33.9 °F 29.95 in NW 16.0 mph 27.0 mph 44% 0.00 in 663.00 W/m2
11:24 55.7 °F 32.9 °F 29.95 in NW 25.0 mph 30.0 mph 42% 0.00 in 700.00 W/m2
11:29 55.8 °F 30.5 °F 29.95 in NW 12.0 mph 30.0 mph 38% 0.00 in 691.00 W/m2
11:34 55.2 °F 28.0 °F 29.95 in NNW 18.0 mph 32.0 mph 35% 0.00 in 613.00 W/m2
11:39 54.3 °F 27.2 °F 29.96 in WNW 19.0 mph 32.0 mph 35% 0.00 in 761.00 W/m2
11:44 54.9 °F 24.8 °F 29.95 in West 23.0 mph 33.0 mph 31% 0.00 in 789.00 W/m2
11:49 55.7 °F 21.3 °F 29.96 in NW 21.0 mph 33.0 mph 26% 0.00 in 791.00 W/m2
11:54 56.2 °F 19.8 °F 29.96 in NW 22.0 mph 31.0 mph 24% 0.00 in 802.00 W/m2
11:59 56.4 °F 18.0 °F 29.96 in NW 23.0 mph 34.0 mph 22% 0.00 in 809.00 W/m2
12:04 55.8 °F 18.5 °F 29.96 in NW 21.0 mph 34.0 mph 23% 0.00 in 816.00 W/m2
12:09 55.5 °F 17.2 °F 29.97 in NW 22.0 mph 35.0 mph 22% 0.00 in 823.00 W/m2
12:14 55.4 °F 19.2 °F 29.97 in NW 19.0 mph 35.0 mph 24% 0.00 in 828.00 W/m2
12:19 55.6 °F 18.3 °F 29.97 in NW 20.0 mph 32.0 mph 23% 0.00 in 835.00 W/m2
12:24 55.8 °F 18.5 °F 29.97 in WNW 23.0 mph 35.0 mph 23% 0.00 in 840.00 W/m2
12:29 55.9 °F 18.6 °F 29.97 in NW 22.0 mph 35.0 mph 23% 0.00 in 844.00 W/m2
12:34 55.9 °F 18.6 °F 29.97 in NW 21.0 mph 32.0 mph 23% 0.00 in 847.00 W/m2
12:39 56.2 °F 19.8 °F 29.97 in WNW 27.0 mph 34.0 mph 24% 0.00 in 856.00 W/m2
12:44 55.1 °F 17.9 °F 29.97 in West 21.0 mph 34.0 mph 23% 0.00 in 861.00 W/m2
12:49 55.3 °F 18.1 °F 29.97 in WNW 18.0 mph 41.0 mph 23% 0.00 in 867.00 W/m2
12:54 54.9 °F 15.6 °F 29.97 in NW 22.0 mph 41.0 mph 21% 0.00 in 865.00 W/m2
12:59 55.6 °F 17.3 °F 29.97 in WNW 22.0 mph 37.0 mph 22% 0.00 in 874.00 W/m2
13:04 55.0 °F 14.6 °F 29.97 in NW 30.0 mph 36.0 mph 20% 0.00 in 879.00 W/m2
13:09 54.8 °F 15.6 °F 29.97 in WNW 15.0 mph 35.0 mph 21% 0.00 in 875.00 W/m2
13:14 55.6 °F 18.3 °F 29.97 in NW 23.0 mph 33.0 mph 23% 0.00 in 881.00 W/m2
13:19 55.6 °F 17.3 °F 29.97 in WNW 20.0 mph 37.0 mph 22% 0.00 in 882.00 W/m2
13:24 55.7 °F 18.4 °F 29.97 in WNW 23.0 mph 37.0 mph 23% 0.00 in 884.00 W/m2
13:29 55.5 °F 18.2 °F 29.97 in WNW 26.0 mph 34.0 mph 23% 0.00 in 886.00 W/m2
13:34 55.2 °F 17.0 °F 29.97 in WNW 24.0 mph 37.0 mph 22% 0.00 in 889.00 W/m2
13:39 55.3 °F 17.0 °F 29.97 in WNW 27.0 mph 37.0 mph 22% 0.00 in 886.00 W/m2
13:44 55.3 °F 14.8 °F 29.97 in NW 35.0 mph 38.0 mph 20% 0.00 in 891.00 W/m2
13:49 55.3 °F 17.0 °F 29.97 in NW 26.0 mph 41.0 mph 22% 0.00 in 886.00 W/m2
13:54 55.0 °F 16.8 °F 29.97 in WNW 27.0 mph 41.0 mph 22% 0.00 in 886.00 W/m2
13:59 55.0 °F 16.8 °F 29.97 in NW 24.0 mph 36.0 mph 22% 0.00 in 886.00 W/m2
14:04 55.5 °F 17.2 °F 29.97 in NW 28.0 mph 36.0 mph 22% 0.00 in 886.00 W/m2
14:09 55.3 °F 18.1 °F 29.98 in WNW 29.0 mph 34.0 mph 23% 0.00 in 886.00 W/m2
14:14 55.0 °F 16.8 °F 29.98 in NW 23.0 mph 37.0 mph 22% 0.00 in 888.00 W/m2
14:19 55.8 °F 18.5 °F 29.98 in WNW 25.0 mph 37.0 mph 23% 0.00 in 882.00 W/m2
14:24 55.4 °F 17.1 °F 29.98 in NW 30.0 mph 40.0 mph 22% 0.00 in 881.00 W/m2
14:29 54.9 °F 16.7 °F 29.98 in NW 17.0 mph 40.0 mph 22% 0.00 in 877.00 W/m2
14:34 55.0 °F 17.8 °F 29.99 in NW 24.0 mph 40.0 mph 23% 0.00 in 877.00 W/m2
14:39 55.1 °F 16.9 °F 29.98 in WNW 31.0 mph 38.0 mph 22% 0.00 in 875.00 W/m2
14:44 55.0 °F 14.6 °F 29.99 in NW 29.0 mph 37.0 mph 20% 0.00 in 870.00 W/m2
14:49 55.1 °F 16.9 °F 29.98 in NW 30.0 mph 37.0 mph 22% 0.00 in 868.00 W/m2
14:54 55.0 °F 14.6 °F 29.99 in NW 21.0 mph 44.0 mph 20% 0.00 in 858.00 W/m2
14:59 54.7 °F 15.5 °F 29.98 in NW 19.0 mph 44.0 mph 21% 0.00 in 854.00 W/m2
15:04 55.4 °F 17.1 °F 29.98 in West 28.0 mph 43.0 mph 22% 0.00 in 849.00 W/m2
15:09 55.9 °F 18.6 °F 29.98 in WNW 24.0 mph 43.0 mph 23% 0.00 in 846.00 W/m2
15:14 55.8 °F 17.5 °F 29.98 in NW 22.0 mph 37.0 mph 22% 0.00 in 840.00 W/m2
15:19 55.7 °F 14.0 °F 29.98 in NW 25.0 mph 42.0 mph 19% 0.00 in 838.00 W/m2
15:24 55.4 °F 14.9 °F 29.99 in NW 27.0 mph 42.0 mph 20% 0.00 in 831.00 W/m2
15:29 55.4 °F 17.1 °F 29.98 in West 31.0 mph 39.0 mph 22% 0.00 in 826.00 W/m2
15:34 54.9 °F 15.6 °F 29.98 in WNW 25.0 mph 39.0 mph 21% 0.00 in 814.00 W/m2
15:39 55.3 °F 13.7 °F 29.98 in West 20.0 mph 42.0 mph 19% 0.00 in 807.00 W/m2
15:44 54.8 °F 16.6 °F 29.98 in NW 23.0 mph 42.0 mph 22% 0.00 in 793.00 W/m2
15:49 55.3 °F 16.0 °F 29.98 in NW 26.0 mph 38.0 mph 21% 0.00 in 786.00 W/m2
15:54 55.8 °F 15.3 °F 29.98 in WNW 20.0 mph 40.0 mph 20% 0.00 in 780.00 W/m2
15:59 55.2 °F 15.9 °F 29.98 in North 22.0 mph 40.0 mph 21% 0.00 in 766.00 W/m2
16:04 55.1 °F 14.7 °F 29.98 in WNW 24.0 mph 37.0 mph 20% 0.00 in 759.00 W/m2
16:09 56.3 °F 15.7 °F 29.98 in West 28.0 mph 37.0 mph 20% 0.00 in 751.00 W/m2
16:14 55.2 °F 13.6 °F 29.97 in NW 30.0 mph 38.0 mph 19% 0.01 in 740.00 W/m2
16:19 55.5 °F 13.8 °F 29.98 in NW 22.0 mph 43.0 mph 19% 0.01 in 726.00 W/m2
16:24 55.4 °F 12.5 °F 29.98 in WNW 21.0 mph 43.0 mph 18% 0.01 in 717.00 W/m2
16:29 55.4 °F 14.9 °F 29.98 in WNW 26.0 mph 40.0 mph 20% 0.01 in 708.00 W/m2
16:34 55.8 °F 15.3 °F 29.98 in NW 27.0 mph 39.0 mph 20% 0.01 in 693.00 W/m2
16:39 55.1 °F 14.7 °F 29.99 in NW 22.0 mph 41.0 mph 20% 0.01 in 682.00 W/m2
16:44 55.7 °F 16.3 °F 29.98 in WNW 25.0 mph 41.0 mph 21% 0.01 in 677.00 W/m2
16:49 55.4 °F 13.8 °F 29.98 in WNW 34.0 mph 41.0 mph 19% 0.01 in 661.00 W/m2
16:54 55.1 °F 14.7 °F 29.98 in NW 23.0 mph 38.0 mph 20% 0.01 in 647.00 W/m2
16:59 55.3 °F 13.7 °F 29.98 in NW 23.0 mph 38.0 mph 19% 0.01 in 638.00 W/m2
17:04 54.8 °F 12.0 °F 29.98 in NW 23.0 mph 38.0 mph 18% 0.00 in 624.00 W/m2
17:09 54.8 °F 13.3 °F 29.99 in NW 28.0 mph 36.0 mph 19% 0.00 in 608.00 W/m2
17:14 54.8 °F 13.3 °F 29.99 in NW 25.0 mph 39.0 mph 19% 0.00 in 596.00 W/m2
17:19 54.5 °F 13.0 °F 29.99 in NW 24.0 mph 43.0 mph 19% 0.00 in 584.00 W/m2
17:24 54.9 °F 15.6 °F 29.99 in WNW 29.0 mph 43.0 mph 21% 0.00 in 568.00 W/m2
17:29 55.2 °F 14.8 °F 29.99 in WNW 28.0 mph 35.0 mph 20% 0.00 in 554.00 W/m2
17:34 54.9 °F 15.6 °F 29.99 in NW 30.0 mph 38.0 mph 21% 0.00 in 541.00 W/m2
17:39 54.5 °F 13.0 °F 29.99 in NW 23.0 mph 45.0 mph 19% 0.00 in 527.00 W/m2
17:44 54.3 °F 12.8 °F 29.99 in NW 35.0 mph 45.0 mph 19% 0.00 in 512.00 W/m2
17:49 54.4 °F 12.9 °F 29.99 in NW 22.0 mph 39.0 mph 19% 0.00 in 499.00 W/m2
17:54 54.6 °F 13.1 °F 29.99 in NW 19.0 mph 39.0 mph 19% 0.00 in 482.00 W/m2
17:59 54.7 °F 12.0 °F 30.00 in WNW 17.0 mph 35.0 mph 18% 0.00 in 468.00 W/m2
18:04 54.5 °F 11.8 °F 30.00 in NW 20.0 mph 35.0 mph 18% 0.00 in 450.00 W/m2
18:09 54.2 °F 11.5 °F 30.00 in NW 16.0 mph 35.0 mph 18% 0.00 in 438.00 W/m2
18:14 53.9 °F 11.3 °F 30.00 in NW 25.0 mph 38.0 mph 18% 0.00 in 420.00 W/m2
18:19 53.9 °F 10.0 °F 30.00 in NW 25.0 mph 38.0 mph 17% 0.00 in 406.00 W/m2
18:24 54.2 °F 12.8 °F 30.01 in NW 27.0 mph 37.0 mph 19% 0.00 in 388.00 W/m2
18:29 54.0 °F 12.6 °F 30.01 in WNW 22.0 mph 39.0 mph 19% 0.00 in 373.00 W/m2
18:34 53.8 °F 9.9 °F 30.01 in NW 15.0 mph 39.0 mph 17% 0.00 in 360.00 W/m2
18:39 53.7 °F 8.5 °F 30.01 in NW 17.0 mph 37.0 mph 16% 0.00 in 343.00 W/m2
18:44 54.0 °F 10.1 °F 30.00 in WNW 30.0 mph 34.0 mph 17% 0.00 in 329.00 W/m2
18:49 53.6 °F 9.8 °F 30.01 in NW 29.0 mph 35.0 mph 17% 0.00 in 313.00 W/m2
18:54 53.3 °F 8.2 °F 30.01 in NW 23.0 mph 39.0 mph 16% 0.00 in 297.00 W/m2
18:59 53.1 °F 9.4 °F 30.01 in WNW 21.0 mph 39.0 mph 17% 0.00 in 281.00 W/m2
19:04 53.1 °F 10.6 °F 30.01 in NW 19.0 mph 36.0 mph 18% 0.00 in 262.00 W/m2
19:09 53.2 °F 10.7 °F 30.01 in WNW 21.0 mph 36.0 mph 18% 0.00 in 241.00 W/m2
19:14 53.1 °F 11.9 °F 30.01 in WNW 28.0 mph 32.0 mph 19% 0.00 in 218.00 W/m2
19:19 52.9 °F 11.7 °F 30.01 in NW 22.0 mph 32.0 mph 19% 0.00 in 202.00 W/m2
19:24 52.8 °F 12.8 °F 30.00 in NW 15.0 mph 30.0 mph 20% 0.00 in 183.00 W/m2
19:29 52.8 °F 13.9 °F 30.01 in NW 13.0 mph 30.0 mph 21% 0.00 in 163.00 W/m2
19:34 52.6 °F 12.6 °F 30.01 in West 15.0 mph 30.0 mph 20% 0.00 in 142.00 W/m2
19:39 52.4 °F 12.4 °F 30.01 in WNW 20.0 mph 28.0 mph 20% 0.00 in 123.00 W/m2
19:44 52.2 °F 12.3 °F 30.01 in NW 19.0 mph 28.0 mph 20% 0.00 in 105.00 W/m2
19:49 52.1 °F 13.3 °F 30.01 in NW 18.0 mph 28.0 mph 21% 0.00 in 90.00 W/m2
19:54 51.8 °F 14.1 °F 30.01 in WNW 20.0 mph 26.0 mph 22% 0.00 in 76.00 W/m2
19:59 51.6 °F 13.9 °F 30.02 in NW 23.0 mph 26.0 mph 22% 0.00 in 63.00 W/m2
20:04 51.4 °F 14.8 °F 30.02 in West 13.0 mph 26.0 mph 23% 0.00 in 51.00 W/m2
20:09 51.2 °F 15.6 °F 30.02 in WNW 20.0 mph 26.0 mph 24% 0.00 in 40.00 W/m2
20:14 50.9 °F 15.3 °F 30.02 in NW 11.0 mph 24.0 mph 24% 0.00 in 30.00 W/m2
20:19 50.6 °F 15.1 °F 30.02 in NW 7.0 mph 23.0 mph 24% 0.00 in 23.00 W/m2
20:24 50.3 °F 15.8 °F 30.02 in NW 13.0 mph 23.0 mph 25% 0.00 in 19.00 W/m2
20:29 50.0 °F 16.4 °F 30.02 in NW 10.0 mph 19.0 mph 26% 0.00 in 16.00 W/m2
20:34 49.4 °F 16.8 °F 30.03 in WNW 11.0 mph 16.0 mph 27% 0.00 in 12.00 W/m2
20:39 48.7 °F 16.2 °F 30.03 in NNW 12.0 mph 17.0 mph 27% 0.00 in 9.00 W/m2
20:44 48.5 °F 16.8 °F 30.03 in WNW 9.0 mph 17.0 mph 28% 0.00 in 7.00 W/m2
20:49 47.8 °F 17.0 °F 30.03 in WNW 11.0 mph 15.0 mph 29% 0.00 in 0.00 W/m2
20:54 47.5 °F 16.8 °F 30.03 in WNW 9.0 mph 14.0 mph 29% 0.00 in 0.00 W/m2
20:59 47.3 °F 17.4 °F 30.04 in NW 7.0 mph 14.0 mph 30% 0.00 in 0.00 W/m2
21:04 47.0 °F 17.1 °F 30.04 in WNW 8.0 mph 14.0 mph 30% 0.00 in 0.00 W/m2
21:09 46.4 °F 17.4 °F 30.04 in NW 8.0 mph 11.0 mph 31% 0.00 in 0.00 W/m2
21:14 46.1 °F 17.1 °F 30.04 in NW 7.0 mph 10.0 mph 31% 0.00 in 0.00 W/m2
21:19 45.6 °F 17.4 °F 30.04 in NW 4.0 mph 10.0 mph 32% 0.00 in 0.00 W/m2
21:24 44.9 °F 17.5 °F 30.05 in NW 4.0 mph 9.0 mph 33% 0.00 in 0.00 W/m2
21:29 44.4 °F 17.7 °F 30.05 in NW 5.0 mph 8.0 mph 34% 0.00 in 0.00 W/m2
21:34 43.7 °F 17.8 °F 30.05 in NW 6.0 mph 8.0 mph 35% 0.00 in 0.00 W/m2
21:39 43.2 °F 18.0 °F 30.05 in NW 5.0 mph 8.0 mph 36% 0.00 in 0.00 W/m2
21:44 42.6 °F 18.1 °F 30.05 in NW 4.0 mph 7.0 mph 37% 0.00 in 0.00 W/m2
21:49 42.3 °F 18.5 °F 30.06 in NW 4.0 mph 6.0 mph 38% 0.00 in 0.00 W/m2
21:54 42.0 °F 18.8 °F 30.06 in NW 4.0 mph 5.0 mph 39% 0.00 in 0.00 W/m2
21:59 41.7 °F 18.5 °F 30.06 in NW 5.0 mph 8.0 mph 39% 0.00 in 0.00 W/m2
22:04 41.4 °F 18.9 °F 30.06 in NW 4.0 mph 8.0 mph 40% 0.00 in 0.00 W/m2
22:09 41.1 °F 19.2 °F 30.07 in NW 5.0 mph 7.0 mph 41% 0.00 in 0.00 W/m2
22:14 40.8 °F 18.9 °F 30.06 in NW 5.0 mph 7.0 mph 41% 0.00 in 0.00 W/m2
22:19 40.6 °F 19.3 °F 30.07 in NW 5.0 mph 7.0 mph 42% 0.00 in 0.00 W/m2
22:24 40.5 °F 19.2 °F 30.07 in NW 4.0 mph 7.0 mph 42% 0.00 in 0.00 W/m2
22:29 40.2 °F 19.5 °F 30.07 in NW 4.0 mph 6.0 mph 43% 0.00 in 0.00 W/m2
22:34 40.2 °F 19.5 °F 30.06 in NW 2.0 mph 6.0 mph 43% 0.00 in 0.00 W/m2
22:39 40.1 °F 19.4 °F 30.07 in NW 1.0 mph 5.0 mph 43% 0.00 in 0.00 W/m2
22:44 39.6 °F 20.0 °F 30.06 in NW 1.0 mph 3.0 mph 45% 0.00 in 0.00 W/m2
22:49 38.9 °F 19.3 °F 30.07 in NW 2.0 mph 3.0 mph 45% 0.00 in 0.00 W/m2
22:54 38.5 °F 19.5 °F 30.07 in NW 2.0 mph 3.0 mph 46% 0.00 in 0.00 W/m2
22:59 38.4 °F 19.4 °F 30.07 in SW 3.0 mph 4.0 mph 46% 0.00 in 0.00 W/m2
23:04 38.3 °F 19.3 °F 30.07 in SW 4.0 mph 4.0 mph 46% 0.00 in 0.00 W/m2
23:09 38.2 °F 19.2 °F 30.07 in SW 3.0 mph 4.0 mph 46% 0.00 in 0.00 W/m2
23:14 38.1 °F 19.1 °F 30.07 in SW 4.0 mph 5.0 mph 46% 0.00 in 0.00 W/m2
23:19 38.0 °F 19.0 °F 30.08 in SW 4.0 mph 5.0 mph 46% 0.00 in 0.00 W/m2
23:24 37.8 °F 18.8 °F 30.08 in SW 5.0 mph 6.0 mph 46% 0.00 in 0.00 W/m2
23:29 37.6 °F 18.7 °F 30.08 in SW 4.0 mph 6.0 mph 46% 0.00 in 0.00 W/m2
23:34 37.4 °F 18.5 °F 30.08 in SW 3.0 mph 6.0 mph 46% 0.00 in 0.00 W/m2
23:39 37.1 °F 18.2 °F 30.08 in SW 3.0 mph 4.0 mph 46% 0.00 in 0.00 W/m2
23:44 37.0 °F 18.6 °F 30.08 in SW 3.0 mph 4.0 mph 47% 0.00 in 0.00 W/m2
23:49 36.8 °F 18.4 °F 30.08 in SW 3.0 mph 4.0 mph 47% 0.00 in 0.00 W/m2
23:54 36.7 °F 18.3 °F 30.08 in SW 3.0 mph 4.0 mph 47% 0.00 in 0.00 W/m2
23:59 36.6 °F 18.2 °F 30.08 in SW 3.0 mph 4.0 mph 47% 0.00 in 0.00 W/m2
Bismarck, North Dakota, USA
Compliments of Weather Underground - 4 mb